sensor_id;sensor_type;location;lat;lon;timestamp;P1;durP1;ratioP1;P2;durP2;ratioP2
71810;SDS011;59657;0.000;0.000;2023-03-31T00:00:44;0.28;;;0.28;;
71810;SDS011;59657;0.000;0.000;2023-03-31T00:03:12;0.60;;;0.60;;
71810;SDS011;59657;0.000;0.000;2023-03-31T00:05:46;0.40;;;0.40;;
71810;SDS011;59657;0.000;0.000;2023-03-31T00:08:12;0.30;;;0.20;;
71810;SDS011;59657;0.000;0.000;2023-03-31T00:10:43;0.40;;;0.40;;
71810;SDS011;59657;0.000;0.000;2023-03-31T00:13:10;0.28;;;0.28;;
71810;SDS011;59657;0.000;0.000;2023-03-31T00:15:36;0.30;;;0.30;;
71810;SDS011;59657;0.000;0.000;2023-03-31T00:18:03;0.40;;;0.30;;
71810;SDS011;59657;0.000;0.000;2023-03-31T00:20:30;0.38;;;0.38;;
71810;SDS011;59657;0.000;0.000;2023-03-31T00:22:58;1.00;;;0.40;;
71810;SDS011;59657;0.000;0.000;2023-03-31T00:25:26;0.50;;;0.50;;
71810;SDS011;59657;0.000;0.000;2023-03-31T00:27:52;0.38;;;0.30;;
71810;SDS011;59657;0.000;0.000;2023-03-31T00:30:19;0.17;;;0.17;;
71810;SDS011;59657;0.000;0.000;2023-03-31T00:32:45;0.30;;;0.30;;
71810;SDS011;59657;0.000;0.000;2023-03-31T00:35:12;0.30;;;0.30;;
71810;SDS011;59657;0.000;0.000;2023-03-31T00:37:39;0.47;;;0.47;;
71810;SDS011;59657;0.000;0.000;2023-03-31T00:40:07;0.20;;;0.20;;
71810;SDS011;59657;0.000;0.000;2023-03-31T00:42:42;0.50;;;0.50;;
71810;SDS011;59657;0.000;0.000;2023-03-31T00:45:20;1.02;;;1.02;;
71810;SDS011;59657;0.000;0.000;2023-03-31T00:47:51;0.20;;;0.20;;
71810;SDS011;59657;0.000;0.000;2023-03-31T00:50:20;0.80;;;0.80;;
71810;SDS011;59657;0.000;0.000;2023-03-31T00:52:50;1.35;;;1.00;;
71810;SDS011;59657;0.000;0.000;2023-03-31T00:55:20;0.85;;;0.45;;
71810;SDS011;59657;0.000;0.000;2023-03-31T00:57:48;1.08;;;1.08;;
71810;SDS011;59657;0.000;0.000;2023-03-31T01:00:18;0.70;;;0.40;;
71810;SDS011;59657;0.000;0.000;2023-03-31T01:02:47;0.43;;;0.43;;
71810;SDS011;59657;0.000;0.000;2023-03-31T01:05:18;0.50;;;0.40;;
71810;SDS011;59657;0.000;0.000;2023-03-31T01:07:47;0.50;;;0.50;;
71810;SDS011;59657;0.000;0.000;2023-03-31T01:10:14;0.30;;;0.30;;
71810;SDS011;59657;0.000;0.000;2023-03-31T01:12:41;0.73;;;0.40;;
71810;SDS011;59657;0.000;0.000;2023-03-31T01:15:09;0.50;;;0.50;;
71810;SDS011;59657;0.000;0.000;2023-03-31T01:17:35;0.30;;;0.30;;
71810;SDS011;59657;0.000;0.000;2023-03-31T01:20:16;0.45;;;0.38;;
71810;SDS011;59657;0.000;0.000;2023-03-31T01:31:27;0.52;;;0.52;;
71810;SDS011;59657;0.000;0.000;2023-03-31T01:33:31;1.02;;;1.02;;
71810;SDS011;59657;0.000;0.000;2023-03-31T01:36:14;1.15;;;1.15;;
71810;SDS011;59657;0.000;0.000;2023-03-31T01:39:00;1.10;;;1.10;;
71810;SDS011;59657;0.000;0.000;2023-03-31T01:41:36;1.40;;;0.52;;
71810;SDS011;59657;0.000;0.000;2023-03-31T01:44:08;0.38;;;0.38;;
71810;SDS011;59657;0.000;0.000;2023-03-31T01:46:51;0.45;;;0.45;;
71810;SDS011;59657;0.000;0.000;2023-03-31T01:49:21;0.30;;;0.30;;
71810;SDS011;59657;0.000;0.000;2023-03-31T01:54:33;1.08;;;1.08;;
71810;SDS011;59657;0.000;0.000;2023-03-31T01:57:09;0.38;;;0.38;;
71810;SDS011;59657;0.000;0.000;2023-03-31T01:59:40;0.40;;;0.40;;
71810;SDS011;59657;0.000;0.000;2023-03-31T02:02:10;1.27;;;0.60;;
71810;SDS011;59657;0.000;0.000;2023-03-31T02:04:41;0.35;;;0.30;;
71810;SDS011;59657;0.000;0.000;2023-03-31T02:07:11;0.35;;;0.22;;
71810;SDS011;59657;0.000;0.000;2023-03-31T02:09:43;0.35;;;0.35;;
71810;SDS011;59657;0.000;0.000;2023-03-31T02:12:11;0.80;;;0.80;;
71810;SDS011;59657;0.000;0.000;2023-03-31T02:14:39;0.50;;;0.50;;
71810;SDS011;59657;0.000;0.000;2023-03-31T02:17:09;0.77;;;0.77;;
71810;SDS011;59657;0.000;0.000;2023-03-31T02:19:39;0.43;;;0.43;;
71810;SDS011;59657;0.000;0.000;2023-03-31T02:22:06;1.35;;;1.27;;
71810;SDS011;59657;0.000;0.000;2023-03-31T02:24:34;0.50;;;0.50;;
71810;SDS011;59657;0.000;0.000;2023-03-31T02:27:08;0.38;;;0.38;;
71810;SDS011;59657;0.000;0.000;2023-03-31T02:29:36;0.43;;;0.43;;
71810;SDS011;59657;0.000;0.000;2023-03-31T02:32:08;0.50;;;0.47;;
71810;SDS011;59657;0.000;0.000;2023-03-31T02:34:36;0.30;;;0.30;;
71810;SDS011;59657;0.000;0.000;2023-03-31T02:37:03;0.90;;;0.57;;
71810;SDS011;59657;0.000;0.000;2023-03-31T02:39:32;0.30;;;0.30;;
71810;SDS011;59657;0.000;0.000;2023-03-31T02:41:59;0.90;;;0.90;;
71810;SDS011;59657;0.000;0.000;2023-03-31T02:44:32;1.15;;;1.15;;
71810;SDS011;59657;0.000;0.000;2023-03-31T02:46:59;0.90;;;0.60;;
71810;SDS011;59657;0.000;0.000;2023-03-31T02:49:26;0.50;;;0.50;;
71810;SDS011;59657;0.000;0.000;2023-03-31T02:57:17;0.30;;;0.30;;
71810;SDS011;59657;0.000;0.000;2023-03-31T02:59:48;1.27;;;1.25;;
71810;SDS011;59657;0.000;0.000;2023-03-31T03:04:51;1.27;;;0.75;;
71810;SDS011;59657;0.000;0.000;2023-03-31T03:07:23;0.40;;;0.38;;
71810;SDS011;59657;0.000;0.000;2023-03-31T03:09:57;0.60;;;0.50;;
71810;SDS011;59657;0.000;0.000;2023-03-31T03:12:29;0.40;;;0.40;;
71810;SDS011;59657;0.000;0.000;2023-03-31T03:17:36;0.93;;;0.70;;
71810;SDS011;59657;0.000;0.000;2023-03-31T03:20:04;0.77;;;0.77;;
71810;SDS011;59657;0.000;0.000;2023-03-31T03:22:34;0.70;;;0.70;;
71810;SDS011;59657;0.000;0.000;2023-03-31T03:25:01;0.70;;;0.43;;
71810;SDS011;59657;0.000;0.000;2023-03-31T03:27:28;0.75;;;0.50;;
71810;SDS011;59657;0.000;0.000;2023-03-31T03:29:54;1.33;;;1.23;;
71810;SDS011;59657;0.000;0.000;2023-03-31T03:32:21;1.00;;;0.85;;
71810;SDS011;59657;0.000;0.000;2023-03-31T03:34:47;0.50;;;0.50;;
71810;SDS011;59657;0.000;0.000;2023-03-31T03:37:14;0.50;;;0.50;;
71810;SDS011;59657;0.000;0.000;2023-03-31T03:39:41;0.32;;;0.32;;
71810;SDS011;59657;0.000;0.000;2023-03-31T03:42:07;0.57;;;0.57;;
71810;SDS011;59657;0.000;0.000;2023-03-31T03:44:34;0.50;;;0.40;;
71810;SDS011;59657;0.000;0.000;2023-03-31T03:47:00;0.38;;;0.38;;
71810;SDS011;59657;0.000;0.000;2023-03-31T03:49:27;0.50;;;0.50;;
71810;SDS011;59657;0.000;0.000;2023-03-31T03:51:53;0.47;;;0.47;;
71810;SDS011;59657;0.000;0.000;2023-03-31T03:54:20;1.00;;;1.00;;
71810;SDS011;59657;0.000;0.000;2023-03-31T03:56:46;0.77;;;0.65;;
71810;SDS011;59657;0.000;0.000;2023-03-31T03:59:13;0.43;;;0.43;;
71810;SDS011;59657;0.000;0.000;2023-03-31T04:01:40;1.23;;;0.50;;
71810;SDS011;59657;0.000;0.000;2023-03-31T04:04:07;0.65;;;0.47;;
71810;SDS011;59657;0.000;0.000;2023-03-31T04:06:33;0.60;;;0.60;;
71810;SDS011;59657;0.000;0.000;2023-03-31T04:09:00;0.55;;;0.55;;
71810;SDS011;59657;0.000;0.000;2023-03-31T04:11:27;0.77;;;0.77;;
71810;SDS011;59657;0.000;0.000;2023-03-31T04:13:54;0.50;;;0.50;;
71810;SDS011;59657;0.000;0.000;2023-03-31T04:16:22;0.57;;;0.43;;
71810;SDS011;59657;0.000;0.000;2023-03-31T04:18:50;0.75;;;0.75;;
71810;SDS011;59657;0.000;0.000;2023-03-31T04:21:17;0.77;;;0.60;;
71810;SDS011;59657;0.000;0.000;2023-03-31T04:23:47;0.52;;;0.52;;
71810;SDS011;59657;0.000;0.000;2023-03-31T04:26:15;0.63;;;0.55;;
71810;SDS011;59657;0.000;0.000;2023-03-31T04:28:43;0.65;;;0.65;;
71810;SDS011;59657;0.000;0.000;2023-03-31T04:31:17;0.50;;;0.50;;
71810;SDS011;59657;0.000;0.000;2023-03-31T04:33:50;0.40;;;0.40;;
71810;SDS011;59657;0.000;0.000;2023-03-31T04:36:17;0.70;;;0.70;;
71810;SDS011;59657;0.000;0.000;2023-03-31T04:38:46;0.40;;;0.40;;
71810;SDS011;59657;0.000;0.000;2023-03-31T04:41:19;0.50;;;0.50;;
71810;SDS011;59657;0.000;0.000;2023-03-31T04:43:46;0.52;;;0.50;;
71810;SDS011;59657;0.000;0.000;2023-03-31T04:46:12;0.60;;;0.52;;
71810;SDS011;59657;0.000;0.000;2023-03-31T04:48:39;0.52;;;0.47;;
71810;SDS011;59657;0.000;0.000;2023-03-31T04:51:06;0.63;;;0.63;;
71810;SDS011;59657;0.000;0.000;2023-03-31T04:53:35;0.70;;;0.70;;
71810;SDS011;59657;0.000;0.000;2023-03-31T04:56:03;0.95;;;0.85;;
71810;SDS011;59657;0.000;0.000;2023-03-31T04:58:30;0.55;;;0.55;;
71810;SDS011;59657;0.000;0.000;2023-03-31T05:00:56;0.50;;;0.50;;
71810;SDS011;59657;0.000;0.000;2023-03-31T05:03:23;0.50;;;0.50;;
71810;SDS011;59657;0.000;0.000;2023-03-31T05:05:50;0.57;;;0.57;;
71810;SDS011;59657;0.000;0.000;2023-03-31T05:08:17;1.08;;;1.08;;
71810;SDS011;59657;0.000;0.000;2023-03-31T05:10:45;1.20;;;1.20;;
71810;SDS011;59657;0.000;0.000;2023-03-31T05:13:11;0.68;;;0.68;;
71810;SDS011;59657;0.000;0.000;2023-03-31T05:15:38;0.55;;;0.55;;
71810;SDS011;59657;0.000;0.000;2023-03-31T05:18:06;0.65;;;0.65;;
71810;SDS011;59657;0.000;0.000;2023-03-31T05:20:33;1.35;;;0.88;;
71810;SDS011;59657;0.000;0.000;2023-03-31T05:23:01;1.08;;;1.08;;
71810;SDS011;59657;0.000;0.000;2023-03-31T05:25:28;1.50;;;0.68;;
71810;SDS011;59657;0.000;0.000;2023-03-31T05:27:57;0.77;;;0.75;;
71810;SDS011;59657;0.000;0.000;2023-03-31T05:30:24;0.57;;;0.57;;
71810;SDS011;59657;0.000;0.000;2023-03-31T05:32:51;0.60;;;0.60;;
71810;SDS011;59657;0.000;0.000;2023-03-31T05:35:17;0.77;;;0.77;;
71810;SDS011;59657;0.000;0.000;2023-03-31T05:37:44;0.55;;;0.52;;
71810;SDS011;59657;0.000;0.000;2023-03-31T05:40:11;0.93;;;0.60;;
71810;SDS011;59657;0.000;0.000;2023-03-31T05:42:38;0.50;;;0.50;;
71810;SDS011;59657;0.000;0.000;2023-03-31T05:45:06;0.77;;;0.77;;
71810;SDS011;59657;0.000;0.000;2023-03-31T05:47:33;0.63;;;0.60;;
71810;SDS011;59657;0.000;0.000;2023-03-31T05:49:59;0.73;;;0.73;;
71810;SDS011;59657;0.000;0.000;2023-03-31T05:52:28;0.57;;;0.57;;
71810;SDS011;59657;0.000;0.000;2023-03-31T05:54:57;0.57;;;0.50;;
71810;SDS011;59657;0.000;0.000;2023-03-31T05:57:23;0.70;;;0.70;;
71810;SDS011;59657;0.000;0.000;2023-03-31T05:59:50;0.52;;;0.50;;
71810;SDS011;59657;0.000;0.000;2023-03-31T06:02:17;0.63;;;0.63;;
71810;SDS011;59657;0.000;0.000;2023-03-31T06:04:44;1.13;;;0.77;;
71810;SDS011;59657;0.000;0.000;2023-03-31T06:07:12;0.55;;;0.47;;
71810;SDS011;59657;0.000;0.000;2023-03-31T06:09:39;0.50;;;0.50;;
71810;SDS011;59657;0.000;0.000;2023-03-31T06:12:05;0.75;;;0.75;;
71810;SDS011;59657;0.000;0.000;2023-03-31T06:14:32;1.27;;;1.27;;
71810;SDS011;59657;0.000;0.000;2023-03-31T06:16:59;0.60;;;0.60;;
71810;SDS011;59657;0.000;0.000;2023-03-31T06:19:25;1.25;;;0.80;;
71810;SDS011;59657;0.000;0.000;2023-03-31T06:21:52;0.73;;;0.43;;
71810;SDS011;59657;0.000;0.000;2023-03-31T06:24:20;0.65;;;0.60;;
71810;SDS011;59657;0.000;0.000;2023-03-31T06:26:48;0.80;;;0.80;;
71810;SDS011;59657;0.000;0.000;2023-03-31T06:29:15;0.63;;;0.60;;
71810;SDS011;59657;0.000;0.000;2023-03-31T06:31:41;1.05;;;1.05;;
71810;SDS011;59657;0.000;0.000;2023-03-31T06:34:08;0.50;;;0.50;;
71810;SDS011;59657;0.000;0.000;2023-03-31T06:36:36;0.40;;;0.40;;
71810;SDS011;59657;0.000;0.000;2023-03-31T06:39:02;1.40;;;1.30;;
71810;SDS011;59657;0.000;0.000;2023-03-31T06:41:30;0.57;;;0.57;;
71810;SDS011;59657;0.000;0.000;2023-03-31T06:43:57;0.50;;;0.50;;
71810;SDS011;59657;0.000;0.000;2023-03-31T06:46:24;0.75;;;0.68;;
71810;SDS011;59657;0.000;0.000;2023-03-31T06:48:51;0.65;;;0.65;;
71810;SDS011;59657;0.000;0.000;2023-03-31T06:51:18;0.50;;;0.45;;
71810;SDS011;59657;0.000;0.000;2023-03-31T06:53:45;0.65;;;0.65;;
71810;SDS011;59657;0.000;0.000;2023-03-31T06:56:12;0.50;;;0.50;;
71810;SDS011;59657;0.000;0.000;2023-03-31T06:58:38;0.73;;;0.63;;
71810;SDS011;59657;0.000;0.000;2023-03-31T07:01:05;0.73;;;0.60;;
71810;SDS011;59657;0.000;0.000;2023-03-31T07:03:32;0.43;;;0.43;;
71810;SDS011;59657;0.000;0.000;2023-03-31T07:05:58;0.47;;;0.47;;
71810;SDS011;59657;0.000;0.000;2023-03-31T07:08:25;0.60;;;0.60;;
71810;SDS011;59657;0.000;0.000;2023-03-31T07:13:18;0.57;;;0.55;;
71810;SDS011;59657;0.000;0.000;2023-03-31T07:15:46;0.60;;;0.60;;
71810;SDS011;59657;0.000;0.000;2023-03-31T07:18:13;0.75;;;0.75;;
71810;SDS011;59657;0.000;0.000;2023-03-31T07:20:41;0.68;;;0.68;;
71810;SDS011;59657;0.000;0.000;2023-03-31T07:23:08;1.00;;;0.60;;
71810;SDS011;59657;0.000;0.000;2023-03-31T07:25:34;0.90;;;0.57;;
71810;SDS011;59657;0.000;0.000;2023-03-31T07:28:02;0.40;;;0.38;;
71810;SDS011;59657;0.000;0.000;2023-03-31T07:30:30;0.38;;;0.38;;
71810;SDS011;59657;0.000;0.000;2023-03-31T07:32:56;0.60;;;0.60;;
71810;SDS011;59657;0.000;0.000;2023-03-31T07:35:23;0.55;;;0.55;;
71810;SDS011;59657;0.000;0.000;2023-03-31T07:37:50;0.82;;;0.68;;
71810;SDS011;59657;0.000;0.000;2023-03-31T07:40:18;0.57;;;0.57;;
71810;SDS011;59657;0.000;0.000;2023-03-31T07:42:46;1.05;;;0.95;;
71810;SDS011;59657;0.000;0.000;2023-03-31T07:45:13;1.10;;;0.75;;
71810;SDS011;59657;0.000;0.000;2023-03-31T07:47:40;0.93;;;0.75;;
71810;SDS011;59657;0.000;0.000;2023-03-31T07:50:07;0.77;;;0.77;;
71810;SDS011;59657;0.000;0.000;2023-03-31T07:52:34;1.48;;;0.90;;
71810;SDS011;59657;0.000;0.000;2023-03-31T07:55:01;0.47;;;0.32;;
71810;SDS011;59657;0.000;0.000;2023-03-31T07:57:28;0.50;;;0.50;;
71810;SDS011;59657;0.000;0.000;2023-03-31T07:59:55;0.55;;;0.55;;
71810;SDS011;59657;0.000;0.000;2023-03-31T08:02:21;0.20;;;0.20;;
71810;SDS011;59657;0.000;0.000;2023-03-31T08:04:48;1.15;;;1.15;;
71810;SDS011;59657;0.000;0.000;2023-03-31T08:07:15;0.57;;;0.55;;
71810;SDS011;59657;0.000;0.000;2023-03-31T08:09:43;0.50;;;0.50;;
71810;SDS011;59657;0.000;0.000;2023-03-31T08:12:10;0.80;;;0.80;;
71810;SDS011;59657;0.000;0.000;2023-03-31T08:14:37;1.27;;;0.70;;
71810;SDS011;59657;0.000;0.000;2023-03-31T08:17:04;0.60;;;0.55;;
71810;SDS011;59657;0.000;0.000;2023-03-31T08:19:30;0.50;;;0.50;;
71810;SDS011;59657;0.000;0.000;2023-03-31T08:21:57;0.68;;;0.68;;
71810;SDS011;59657;0.000;0.000;2023-03-31T08:24:23;0.32;;;0.32;;
71810;SDS011;59657;0.000;0.000;2023-03-31T08:29:17;0.68;;;0.68;;
71810;SDS011;59657;0.000;0.000;2023-03-31T08:31:45;0.77;;;0.60;;
71810;SDS011;59657;0.000;0.000;2023-03-31T08:34:12;0.98;;;0.68;;
71810;SDS011;59657;0.000;0.000;2023-03-31T08:36:38;0.50;;;0.50;;
71810;SDS011;59657;0.000;0.000;2023-03-31T08:39:05;0.60;;;0.47;;
71810;SDS011;59657;0.000;0.000;2023-03-31T08:44:16;1.10;;;1.10;;
71810;SDS011;59657;0.000;0.000;2023-03-31T08:46:44;0.43;;;0.43;;
71810;SDS011;59657;0.000;0.000;2023-03-31T08:49:14;0.55;;;0.40;;
71810;SDS011;59657;0.000;0.000;2023-03-31T08:51:45;0.77;;;0.77;;
71810;SDS011;59657;0.000;0.000;2023-03-31T08:54:15;0.85;;;0.85;;
71810;SDS011;59657;0.000;0.000;2023-03-31T08:56:43;0.70;;;0.50;;
71810;SDS011;59657;0.000;0.000;2023-03-31T09:01:59;0.57;;;0.57;;
71810;SDS011;59657;0.000;0.000;2023-03-31T09:12:10;1.20;;;0.90;;
71810;SDS011;59657;0.000;0.000;2023-03-31T09:14:43;0.88;;;0.88;;
71810;SDS011;59657;0.000;0.000;2023-03-31T09:17:17;0.85;;;0.85;;
71810;SDS011;59657;0.000;0.000;2023-03-31T09:19:54;1.23;;;1.23;;
71810;SDS011;59657;0.000;0.000;2023-03-31T09:22:24;0.38;;;0.38;;
71810;SDS011;59657;0.000;0.000;2023-03-31T09:24:55;1.23;;;1.23;;
71810;SDS011;59657;0.000;0.000;2023-03-31T09:27:24;0.40;;;0.40;;
71810;SDS011;59657;0.000;0.000;2023-03-31T09:32:30;2.00;;;1.90;;
71810;SDS011;59657;0.000;0.000;2023-03-31T09:35:17;0.63;;;0.52;;
71810;SDS011;59657;0.000;0.000;2023-03-31T09:37:43;0.70;;;0.70;;
71810;SDS011;59657;0.000;0.000;2023-03-31T09:40:13;0.50;;;0.50;;
71810;SDS011;59657;0.000;0.000;2023-03-31T09:42:41;0.70;;;0.70;;
71810;SDS011;59657;0.000;0.000;2023-03-31T09:45:13;0.77;;;0.77;;
71810;SDS011;59657;0.000;0.000;2023-03-31T09:47:41;0.77;;;0.77;;
71810;SDS011;59657;0.000;0.000;2023-03-31T09:50:09;0.93;;;0.73;;
71810;SDS011;59657;0.000;0.000;2023-03-31T09:52:38;0.80;;;0.80;;
71810;SDS011;59657;0.000;0.000;2023-03-31T09:55:12;1.13;;;0.88;;
71810;SDS011;59657;0.000;0.000;2023-03-31T09:57:41;0.50;;;0.50;;
71810;SDS011;59657;0.000;0.000;2023-03-31T10:00:18;0.55;;;0.55;;
71810;SDS011;59657;0.000;0.000;2023-03-31T10:02:49;0.65;;;0.65;;
71810;SDS011;59657;0.000;0.000;2023-03-31T10:05:20;0.57;;;0.57;;
71810;SDS011;59657;0.000;0.000;2023-03-31T10:07:47;1.27;;;1.27;;
71810;SDS011;59657;0.000;0.000;2023-03-31T10:10:21;1.52;;;1.45;;
71810;SDS011;59657;0.000;0.000;2023-03-31T10:12:50;0.75;;;0.75;;
71810;SDS011;59657;0.000;0.000;2023-03-31T10:15:21;0.60;;;0.60;;
71810;SDS011;59657;0.000;0.000;2023-03-31T10:17:48;1.13;;;0.70;;
71810;SDS011;59657;0.000;0.000;2023-03-31T10:20:29;1.00;;;0.68;;
71810;SDS011;59657;0.000;0.000;2023-03-31T10:22:58;0.60;;;0.57;;
71810;SDS011;59657;0.000;0.000;2023-03-31T10:25:27;0.40;;;0.40;;
71810;SDS011;59657;0.000;0.000;2023-03-31T10:27:54;1.55;;;1.55;;
71810;SDS011;59657;0.000;0.000;2023-03-31T10:30:23;1.50;;;1.40;;
71810;SDS011;59657;0.000;0.000;2023-03-31T10:32:50;0.80;;;0.80;;
71810;SDS011;59657;0.000;0.000;2023-03-31T10:35:21;0.63;;;0.55;;
71810;SDS011;59657;0.000;0.000;2023-03-31T10:40:18;0.68;;;0.68;;
71810;SDS011;59657;0.000;0.000;2023-03-31T10:42:46;0.88;;;0.88;;
71810;SDS011;59657;0.000;0.000;2023-03-31T10:45:23;1.23;;;0.90;;
71810;SDS011;59657;0.000;0.000;2023-03-31T10:47:53;0.70;;;0.70;;
71810;SDS011;59657;0.000;0.000;2023-03-31T10:50:25;0.80;;;0.80;;
71810;SDS011;59657;0.000;0.000;2023-03-31T10:52:52;0.50;;;0.50;;
71810;SDS011;59657;0.000;0.000;2023-03-31T10:55:27;0.70;;;0.70;;
71810;SDS011;59657;0.000;0.000;2023-03-31T10:57:57;0.65;;;0.60;;
71810;SDS011;59657;0.000;0.000;2023-03-31T11:00:28;0.77;;;0.70;;
71810;SDS011;59657;0.000;0.000;2023-03-31T11:02:59;0.52;;;0.52;;
71810;SDS011;59657;0.000;0.000;2023-03-31T11:05:30;1.25;;;1.25;;
71810;SDS011;59657;0.000;0.000;2023-03-31T11:08:08;1.45;;;1.45;;
71810;SDS011;59657;0.000;0.000;2023-03-31T11:13:16;0.95;;;0.95;;
71810;SDS011;59657;0.000;0.000;2023-03-31T11:15:50;0.60;;;0.60;;
71810;SDS011;59657;0.000;0.000;2023-03-31T11:23:39;0.77;;;0.60;;
71810;SDS011;59657;0.000;0.000;2023-03-31T11:26:10;1.25;;;1.25;;
71810;SDS011;59657;0.000;0.000;2023-03-31T11:28:41;1.20;;;1.20;;
71810;SDS011;59657;0.000;0.000;2023-03-31T11:33:49;0.70;;;0.70;;
71810;SDS011;59657;0.000;0.000;2023-03-31T11:39:00;0.90;;;0.80;;
71810;SDS011;59657;0.000;0.000;2023-03-31T11:41:32;1.55;;;1.48;;
71810;SDS011;59657;0.000;0.000;2023-03-31T11:44:01;0.70;;;0.70;;
71810;SDS011;59657;0.000;0.000;2023-03-31T11:49:18;1.90;;;1.80;;
71810;SDS011;59657;0.000;0.000;2023-03-31T11:51:51;0.80;;;0.80;;
71810;SDS011;59657;0.000;0.000;2023-03-31T11:56:56;0.80;;;0.80;;
71810;SDS011;59657;0.000;0.000;2023-03-31T11:59:24;1.15;;;1.10;;
71810;SDS011;59657;0.000;0.000;2023-03-31T12:04:41;1.00;;;1.00;;
71810;SDS011;59657;0.000;0.000;2023-03-31T12:07:17;2.00;;;1.10;;
71810;SDS011;59657;0.000;0.000;2023-03-31T12:09:50;1.35;;;0.90;;
71810;SDS011;59657;0.000;0.000;2023-03-31T12:12:19;0.77;;;0.77;;
71810;SDS011;59657;0.000;0.000;2023-03-31T12:14:50;0.82;;;0.82;;
71810;SDS011;59657;0.000;0.000;2023-03-31T12:17:19;0.80;;;0.80;;
71810;SDS011;59657;0.000;0.000;2023-03-31T12:19:49;1.25;;;0.93;;
71810;SDS011;59657;0.000;0.000;2023-03-31T12:22:19;1.05;;;0.98;;
71810;SDS011;59657;0.000;0.000;2023-03-31T12:24:47;0.98;;;0.98;;
71810;SDS011;59657;0.000;0.000;2023-03-31T12:32:30;1.30;;;1.20;;
71810;SDS011;59657;0.000;0.000;2023-03-31T12:35:00;1.20;;;1.10;;
71810;SDS011;59657;0.000;0.000;2023-03-31T12:37:44;1.05;;;0.95;;
71810;SDS011;59657;0.000;0.000;2023-03-31T12:45:26;1.73;;;1.63;;
71810;SDS011;59657;0.000;0.000;2023-03-31T12:48:08;0.82;;;0.80;;
71810;SDS011;59657;0.000;0.000;2023-03-31T12:50:49;1.00;;;1.00;;
71810;SDS011;59657;0.000;0.000;2023-03-31T12:53:23;1.02;;;1.02;;
71810;SDS011;59657;0.000;0.000;2023-03-31T12:55:54;0.88;;;0.88;;
71810;SDS011;59657;0.000;0.000;2023-03-31T12:58:34;1.23;;;0.75;;
71810;SDS011;59657;0.000;0.000;2023-03-31T13:03:38;1.20;;;1.10;;
71810;SDS011;59657;0.000;0.000;2023-03-31T13:06:07;1.42;;;1.40;;
71810;SDS011;59657;0.000;0.000;2023-03-31T13:11:11;0.95;;;0.88;;
71810;SDS011;59657;0.000;0.000;2023-03-31T13:13:51;1.02;;;0.80;;
71810;SDS011;59657;0.000;0.000;2023-03-31T13:16:20;1.10;;;1.00;;
71810;SDS011;59657;0.000;0.000;2023-03-31T13:18:50;1.38;;;1.27;;
71810;SDS011;59657;0.000;0.000;2023-03-31T13:21:17;0.85;;;0.80;;
71810;SDS011;59657;0.000;0.000;2023-03-31T13:23:44;1.05;;;0.90;;
71810;SDS011;59657;0.000;0.000;2023-03-31T13:28:48;1.00;;;1.00;;
71810;SDS011;59657;0.000;0.000;2023-03-31T13:34:11;1.33;;;1.23;;
71810;SDS011;59657;0.000;0.000;2023-03-31T13:36:42;0.82;;;0.82;;
71810;SDS011;59657;0.000;0.000;2023-03-31T13:44:30;0.90;;;0.90;;
71810;SDS011;59657;0.000;0.000;2023-03-31T13:47:07;1.20;;;1.10;;
71810;SDS011;59657;0.000;0.000;2023-03-31T13:49:46;1.10;;;1.10;;
71810;SDS011;59657;0.000;0.000;2023-03-31T13:52:19;1.70;;;1.70;;
71810;SDS011;59657;0.000;0.000;2023-03-31T13:54:53;1.65;;;1.55;;
71810;SDS011;59657;0.000;0.000;2023-03-31T14:00:02;0.80;;;0.80;;
71810;SDS011;59657;0.000;0.000;2023-03-31T14:08:04;0.98;;;0.98;;
71810;SDS011;59657;0.000;0.000;2023-03-31T14:10:38;1.23;;;1.13;;
71810;SDS011;59657;0.000;0.000;2023-03-31T14:13:16;1.05;;;1.00;;
71810;SDS011;59657;0.000;0.000;2023-03-31T14:15:54;1.15;;;1.15;;
71810;SDS011;59657;0.000;0.000;2023-03-31T14:18:26;0.93;;;0.88;;
71810;SDS011;59657;0.000;0.000;2023-03-31T14:26:29;1.73;;;1.63;;
71810;SDS011;59657;0.000;0.000;2023-03-31T14:28:59;1.60;;;1.50;;
71810;SDS011;59657;0.000;0.000;2023-03-31T14:31:37;1.73;;;1.63;;
71810;SDS011;59657;0.000;0.000;2023-03-31T14:34:14;1.77;;;1.67;;
71810;SDS011;59657;0.000;0.000;2023-03-31T14:36:47;1.40;;;1.30;;
71810;SDS011;59657;0.000;0.000;2023-03-31T14:39:19;1.73;;;1.63;;
71810;SDS011;59657;0.000;0.000;2023-03-31T14:41:55;1.65;;;1.55;;
71810;SDS011;59657;0.000;0.000;2023-03-31T14:44:23;1.90;;;1.80;;
71810;SDS011;59657;0.000;0.000;2023-03-31T14:46:51;1.77;;;1.67;;
71810;SDS011;59657;0.000;0.000;2023-03-31T14:51:54;0.88;;;0.88;;
71810;SDS011;59657;0.000;0.000;2023-03-31T14:54:24;1.33;;;1.33;;
71810;SDS011;59657;0.000;0.000;2023-03-31T14:56:53;1.85;;;1.75;;
71810;SDS011;59657;0.000;0.000;2023-03-31T14:59:21;1.70;;;1.60;;
71810;SDS011;59657;0.000;0.000;2023-03-31T15:01:49;1.48;;;1.48;;
71810;SDS011;59657;0.000;0.000;2023-03-31T15:04:18;1.10;;;1.00;;
71810;SDS011;59657;0.000;0.000;2023-03-31T15:06:46;1.88;;;1.77;;
71810;SDS011;59657;0.000;0.000;2023-03-31T15:09:17;1.70;;;1.60;;
71810;SDS011;59657;0.000;0.000;2023-03-31T15:11:47;1.90;;;1.80;;
71810;SDS011;59657;0.000;0.000;2023-03-31T15:14:14;1.27;;;1.20;;
71810;SDS011;59657;0.000;0.000;2023-03-31T15:16:41;1.60;;;1.58;;
71810;SDS011;59657;0.000;0.000;2023-03-31T15:19:12;2.00;;;1.90;;
71810;SDS011;59657;0.000;0.000;2023-03-31T15:21:39;1.95;;;1.85;;
71810;SDS011;59657;0.000;0.000;2023-03-31T15:24:06;0.80;;;0.80;;
71810;SDS011;59657;0.000;0.000;2023-03-31T15:26:34;1.90;;;1.80;;
71810;SDS011;59657;0.000;0.000;2023-03-31T15:29:05;1.73;;;1.63;;
71810;SDS011;59657;0.000;0.000;2023-03-31T15:31:35;0.90;;;0.82;;
71810;SDS011;59657;0.000;0.000;2023-03-31T15:34:11;0.80;;;0.80;;
71810;SDS011;59657;0.000;0.000;2023-03-31T15:36:40;1.92;;;1.60;;
71810;SDS011;59657;0.000;0.000;2023-03-31T15:39:06;1.38;;;1.35;;
71810;SDS011;59657;0.000;0.000;2023-03-31T15:41:33;1.50;;;1.50;;
71810;SDS011;59657;0.000;0.000;2023-03-31T15:44:03;1.55;;;1.52;;
71810;SDS011;59657;0.000;0.000;2023-03-31T15:47:00;1.83;;;1.73;;
71810;SDS011;59657;0.000;0.000;2023-03-31T15:49:19;1.65;;;1.60;;
71810;SDS011;59657;0.000;0.000;2023-03-31T15:51:46;1.33;;;1.33;;
71810;SDS011;59657;0.000;0.000;2023-03-31T15:56:49;1.88;;;1.77;;
71810;SDS011;59657;0.000;0.000;2023-03-31T15:59:22;0.82;;;0.82;;
71810;SDS011;59657;0.000;0.000;2023-03-31T16:01:50;1.23;;;1.23;;
71810;SDS011;59657;0.000;0.000;2023-03-31T16:04:17;1.45;;;1.40;;
71810;SDS011;59657;0.000;0.000;2023-03-31T16:06:46;2.80;;;1.67;;
71810;SDS011;59657;0.000;0.000;2023-03-31T16:11:55;1.67;;;1.58;;
71810;SDS011;59657;0.000;0.000;2023-03-31T16:14:24;1.88;;;1.77;;
71810;SDS011;59657;0.000;0.000;2023-03-31T16:16:56;1.70;;;1.60;;
71810;SDS011;59657;0.000;0.000;2023-03-31T16:19:25;1.70;;;1.60;;
71810;SDS011;59657;0.000;0.000;2023-03-31T16:21:55;1.63;;;1.63;;
71810;SDS011;59657;0.000;0.000;2023-03-31T16:24:27;1.63;;;1.52;;
71810;SDS011;59657;0.000;0.000;2023-03-31T16:27:02;1.60;;;1.50;;
71810;SDS011;59657;0.000;0.000;2023-03-31T16:29:32;1.40;;;1.40;;
71810;SDS011;59657;0.000;0.000;2023-03-31T16:34:49;1.75;;;1.65;;
71810;SDS011;59657;0.000;0.000;2023-03-31T16:37:18;1.63;;;1.52;;
71810;SDS011;59657;0.000;0.000;2023-03-31T16:39:44;1.48;;;1.48;;
71810;SDS011;59657;0.000;0.000;2023-03-31T16:42:12;1.67;;;1.58;;
71810;SDS011;59657;0.000;0.000;2023-03-31T16:44:39;1.10;;;0.90;;
71810;SDS011;59657;0.000;0.000;2023-03-31T16:47:06;1.60;;;1.50;;
71810;SDS011;59657;0.000;0.000;2023-03-31T16:49:32;1.38;;;1.27;;
71810;SDS011;59657;0.000;0.000;2023-03-31T16:51:59;1.13;;;0.77;;
71810;SDS011;59657;0.000;0.000;2023-03-31T16:54:26;1.52;;;1.50;;
71810;SDS011;59657;0.000;0.000;2023-03-31T16:56:53;1.58;;;1.48;;
71810;SDS011;59657;0.000;0.000;2023-03-31T16:59:19;1.65;;;1.55;;
71810;SDS011;59657;0.000;0.000;2023-03-31T17:01:47;1.08;;;1.08;;
71810;SDS011;59657;0.000;0.000;2023-03-31T17:04:14;0.40;;;0.40;;
71810;SDS011;59657;0.000;0.000;2023-03-31T17:06:40;0.93;;;0.80;;
71810;SDS011;59657;0.000;0.000;2023-03-31T17:09:07;1.42;;;1.35;;